Time;durP1;ratioP1;P1;durP2;ratioP2;P2;SDS_P1;SDS_P2;PMS_P1;PMS_P2;Temp;Humidity;BMP_temperature;BMP_pressure;BME280_temperature;BME280_humidity;BME280_pressure;Samples;Min_cycle;Max_cycle;Signal;HPM_P1;HPM_P2
2021/09/22 00:01:49;;;;;;;;;;;;;;;13.94;65.19;101298.63;5050904;28;19928;-63
2021/09/22 00:04:36;;;;;;;;;;;;;;;13.95;65.33;101300.38;5037228;28;19983;-63
2021/09/22 00:07:25;;;;;;;;;;;;;;;13.94;65.32;101303.84;5037032;28;19930;-63
2021/09/22 00:10:14;;;;;;;;;;;;;;;13.94;65.26;101301.22;5038087;28;19928;-63
2021/09/22 00:13:00;;;;;;;;;;;;;;;13.92;65.49;101293.41;5036751;28;19930;-62
2021/09/22 00:15:44;;;;;;;;;;;;;;;13.92;65.25;101300.31;5037437;28;19983;-63
2021/09/22 00:18:31;;;;;;;;;;;;;;;13.92;65.21;101301.22;5037894;28;20379;-63
2021/09/22 00:21:15;;;;;;;;;;;;;;;13.92;65.48;101302.91;5037855;28;19967;-64
2021/09/22 00:24:04;;;;;;;;;;;;;;;13.92;65.41;101308.13;5036886;28;19928;-62
2021/09/22 00:26:48;;;;;;;;;;;;;;;13.92;65.29;101300.31;5036652;28;19967;-63
2021/09/22 00:29:38;;;;;;;;;;;;;;;13.91;65.35;101293.34;5037233;28;20304;-64
2021/09/22 00:32:31;;;;;;;;;;;;;;;13.90;65.36;101296.78;5036678;28;20024;-63
2021/09/22 00:35:20;;;;;;;;;;;;;;;13.86;65.61;101294.09;5050577;28;19931;-63
2021/09/22 00:38:06;;;;;;;;;;;;;;;13.88;65.33;101295.88;5050439;28;19967;-62
2021/09/22 00:40:50;;;;;;;;;;;;;;;13.87;65.48;101295.00;5050249;28;20014;-63
2021/09/22 00:43:36;;;;;;;;;;;;;;;13.86;65.40;101288.91;5037065;28;19928;-63
2021/09/22 00:46:20;;;;;;;;;;;;;;;13.85;65.45;101289.78;5036524;28;20285;-63
2021/09/22 00:49:04;;;;;;;;;;;;;;;13.86;65.53;101290.63;5037073;28;20283;-62
2021/09/22 00:51:54;;;;;;;;;;;;;;;13.84;65.44;101300.16;5037020;28;19948;-62
2021/09/22 00:54:44;;;;;;;;;;;;;;;13.84;65.36;101297.53;5036794;28;19975;-63
2021/09/22 00:57:40;;;;;;;;;;;;;;;13.84;65.58;101297.53;5036562;28;19928;-63
2021/09/22 01:00:30;;;;;;;;;;;;;;;13.83;65.50;101301.00;5036087;28;20380;-63
2021/09/22 01:03:17;;;;;;;;;;;;;;;13.83;65.50;101301.88;5037107;28;19928;-63
2021/09/22 01:06:01;;;;;;;;;;;;;;;13.84;65.52;101302.75;5036422;28;19944;-63
2021/09/22 01:08:45;;;;;;;;;;;;;;;13.83;65.65;101299.28;5036167;28;19995;-62
2021/09/22 01:11:34;;;;;;;;;;;;;;;13.84;65.58;101302.75;5036323;28;19967;-63
2021/09/22 01:14:24;;;;;;;;;;;;;;;13.82;65.44;101297.50;5035595;28;20021;-63
2021/09/22 01:17:08;;;;;;;;;;;;;;;13.83;65.38;101290.56;5035113;28;19976;-63
2021/09/22 01:19:54;;;;;;;;;;;;;;;13.82;65.52;101288.81;5036748;28;20028;-63
2021/09/22 01:22:44;;;;;;;;;;;;;;;13.81;65.49;101294.84;5036218;28;19928;-64
2021/09/22 01:25:31;;;;;;;;;;;;;;;13.80;65.50;101291.38;5049549;28;19928;-62
2021/09/22 01:28:17;;;;;;;;;;;;;;;13.79;65.47;101288.72;5036545;28;19982;-63
2021/09/22 01:31:01;;;;;;;;;;;;;;;13.78;65.47;101287.84;5035283;28;19970;-63
2021/09/22 01:33:45;;;;;;;;;;;;;;;13.78;65.43;101300.03;5035709;28;19960;-63
2021/09/22 01:36:29;;;;;;;;;;;;;;;13.76;65.52;101304.31;5036073;28;19928;-62
2021/09/22 01:39:15;;;;;;;;;;;;;;;13.75;65.60;101311.22;5035992;28;19928;-63
2021/09/22 01:42:02;;;;;;;;;;;;;;;13.74;65.73;101300.78;5035681;28;19927;-63
2021/09/22 01:44:49;;;;;;;;;;;;;;;13.71;65.69;101309.41;5035238;28;19927;-63
2021/09/22 01:47:33;;;;;;;;;;;;;;;13.69;65.48;101298.94;5034719;28;19928;-62
2021/09/22 01:50:18;;;;;;;;;;;;;;;13.67;65.42;101298.03;5035406;28;20010;-63
2021/09/22 01:53:04;;;;;;;;;;;;;;;13.67;65.41;101303.25;5035453;28;19960;-63
2021/09/22 01:55:48;;;;;;;;;;;;;;;13.64;65.33;101297.94;5034439;28;19928;-62
2021/09/22 01:58:35;;;;;;;;;;;;;;;13.63;65.39;101300.53;5035880;28;20402;-63
2021/09/22 02:01:19;;;;;;;;;;;;;;;13.61;65.43;101295.31;5035800;28;19928;-63
2021/09/22 02:04:08;;;;;;;;;;;;;;;13.60;65.59;101293.53;5035883;28;19927;-62
2021/09/22 02:06:52;;;;;;;;;;;;;;;13.60;65.34;101290.03;5035751;28;20403;-63
2021/09/22 02:09:39;;;;;;;;;;;;;;;13.58;65.57;101290.00;5035481;28;19928;-63
2021/09/22 02:12:23;;;;;;;;;;;;;;;13.58;65.39;101286.50;5035493;28;19928;-63
2021/09/22 02:15:07;;;;;;;;;;;;;;;13.54;65.67;101286.47;5035482;28;19975;-63
2021/09/22 02:17:52;;;;;;;;;;;;;;;13.53;65.36;101289.00;5034513;28;20020;-63
2021/09/22 02:20:41;;;;;;;;;;;;;;;13.52;65.37;101284.66;5034563;28;19931;-63
2021/09/22 02:23:31;;;;;;;;;;;;;;;13.52;65.35;101279.44;5034261;28;19931;-63
2021/09/22 02:26:15;;;;;;;;;;;;;;;13.52;65.38;101282.03;5033923;28;19927;-63
2021/09/22 02:28:59;;;;;;;;;;;;;;;13.50;65.58;101279.41;5034664;28;19928;-62
2021/09/22 02:31:42;;;;;;;;;;;;;;;13.52;65.20;101274.22;5035128;28;19928;-63
2021/09/22 02:34:31;;;;;;;;;;;;;;;13.50;65.47;101263.78;5035005;28;19928;-63
2021/09/22 02:37:18;;;;;;;;;;;;;;;13.50;65.45;101260.28;5033580;28;20010;-63
2021/09/22 02:40:04;;;;;;;;;;;;;;;13.49;65.46;101266.34;5034322;28;20284;-63
2021/09/22 02:42:54;;;;;;;;;;;;;;;13.51;65.51;101262.03;5034812;28;19963;-63
2021/09/22 02:45:43;;;;;;;;;;;;;;;13.49;65.30;101268.94;5034875;28;19951;-63
2021/09/22 02:48:30;;;;;;;;;;;;;;;13.48;65.42;101267.19;5033952;28;19967;-64
2021/09/22 02:51:14;;;;;;;;;;;;;;;13.47;65.41;101268.06;5034387;28;19928;-63
2021/09/22 02:53:58;;;;;;;;;;;;;;;13.46;65.36;101276.72;5034965;28;19974;-64
2021/09/22 02:56:42;;;;;;;;;;;;;;;13.43;65.37;101266.22;5034233;28;19928;-63
2021/09/22 02:59:32;;;;;;;;;;;;;;;13.41;65.31;101268.75;5033420;28;20063;-63
2021/09/22 03:02:16;;;;;;;;;;;;;;;13.42;65.27;101254.91;5033395;28;19932;-63
2021/09/22 03:05:03;;;;;;;;;;;;;;;13.40;65.61;101260.09;5033290;28;19928;-63
2021/09/22 03:07:53;;;;;;;;;;;;;;;13.40;65.54;101265.28;5034517;28;20327;-62
2021/09/22 03:10:43;;;;;;;;;;;;;;;13.40;65.61;101269.59;5033828;28;20384;-63
2021/09/22 03:13:35;;;;;;;;;;;;;;;13.39;65.60;101255.69;5033688;28;19928;-63
2021/09/22 03:16:19;;;;;;;;;;;;;;;13.38;65.48;101259.13;5047365;28;19944;-62
2021/09/22 03:19:08;;;;;;;;;;;;;;;13.40;65.49;101248.78;5032945;28;19928;-65
2021/09/22 03:21:53;;;;;;;;;;;;;;;13.39;65.63;101253.09;5033336;28;19928;-63
2021/09/22 03:24:36;;;;;;;;;;;;;;;13.38;65.35;101253.06;5047375;28;19928;-63
2021/09/22 03:27:23;;;;;;;;;;;;;;;13.39;65.80;101249.59;5034034;28;19975;-63
2021/09/22 03:30:15;;;;;;;;;;;;;;;13.37;65.85;101249.56;5034251;28;19975;-63
2021/09/22 03:33:04;;;;;;;;;;;;;;;13.37;65.70;101243.47;5032748;28;19968;-62
2021/09/22 03:35:52;;;;;;;;;;;;;;;13.35;65.50;101239.97;5033470;28;19928;-63
2021/09/22 03:38:39;;;;;;;;;;;;;;;13.36;65.68;101244.31;5033993;28;19931;-63
2021/09/22 03:41:23;;;;;;;;;;;;;;;13.35;65.51;101248.63;5033614;28;19947;-63
2021/09/22 03:44:15;;;;;;;;;;;;;;;13.34;65.82;101252.09;5033204;28;19953;-63
2021/09/22 03:46:59;;;;;;;;;;;;;;;13.33;65.62;101247.72;5047222;28;19928;-63
2021/09/22 03:49:43;;;;;;;;;;;;;;;13.31;65.53;101246.81;5033675;28;19975;-63
2021/09/22 03:52:27;;;;;;;;;;;;;;;13.31;65.56;101248.53;5032668;28;20288;-63
2021/09/22 03:55:14;;;;;;;;;;;;;;;13.30;65.59;101247.66;5033816;28;19975;-63
2021/09/22 03:58:00;;;;;;;;;;;;;;;13.28;65.42;101249.34;5033724;28;20349;-63
2021/09/22 04:00:47;;;;;;;;;;;;;;;13.27;65.61;101247.59;5032804;28;19972;-64
2021/09/22 04:03:31;;;;;;;;;;;;;;;13.24;65.50;101245.75;5034268;28;20010;-63
2021/09/22 04:06:15;;;;;;;;;;;;;;;13.24;65.69;101257.91;5033506;28;19994;-62
2021/09/22 04:09:04;;;;;;;;;;;;;;;13.23;65.66;101258.75;5033776;28;19928;-63
2021/09/22 04:11:54;;;;;;;;;;;;;;;13.21;65.75;101245.72;5046723;28;19928;-62
2021/09/22 04:14:46;;;;;;;;;;;;;;;13.21;65.50;101242.22;5032847;28;20292;-63
2021/09/22 04:17:35;;;;;;;;;;;;;;;13.21;65.53;101239.63;5033851;28;20292;-63
2021/09/22 04:20:22;;;;;;;;;;;;;;;13.20;65.50;101243.06;5033191;28;19927;-63
2021/09/22 04:23:09;;;;;;;;;;;;;;;13.20;65.72;101233.53;5033092;28;19932;-63
2021/09/22 04:25:53;;;;;;;;;;;;;;;13.20;65.60;101240.47;5033560;28;19947;-63
2021/09/22 04:28:39;;;;;;;;;;;;;;;13.19;65.69;101241.28;5033063;28;19928;-63
2021/09/22 04:31:24;;;;;;;;;;;;;;;13.19;65.52;101241.28;5032449;28;19927;-63
2021/09/22 04:34:08;;;;;;;;;;;;;;;13.17;65.61;101228.25;5033475;28;19967;-63
2021/09/22 04:36:53;;;;;;;;;;;;;;;13.18;65.64;101236.94;5033440;28;19928;-63
2021/09/22 04:39:37;;;;;;;;;;;;;;;13.16;65.80;101229.09;5033327;28;19983;-63
2021/09/22 04:42:23;;;;;;;;;;;;;;;13.15;65.47;101239.47;5033376;28;19928;-62
2021/09/22 04:45:10;;;;;;;;;;;;;;;13.14;65.63;101235.13;5033640;28;19928;-63
2021/09/22 04:47:58;;;;;;;;;;;;;;;13.13;66.01;101238.56;5036584;28;19972;-63
2021/09/22 04:50:42;;;;;;;;;;;;;;;13.13;65.51;101235.97;5036008;28;19929;-63
2021/09/22 04:53:29;;;;;;;;;;;;;;;13.12;65.47;101242.00;5036924;28;19932;-63
2021/09/22 04:56:16;;;;;;;;;;;;;;;13.11;65.70;101241.09;5036648;28;20406;-63
2021/09/22 04:59:03;;;;;;;;;;;;;;;13.10;65.61;101236.75;5035858;28;20407;-62
2021/09/22 05:01:47;;;;;;;;;;;;;;;13.09;65.86;101240.19;5035331;28;19928;-62
2021/09/22 05:04:31;;;;;;;;;;;;;;;13.08;65.71;101239.31;5036099;28;20012;-62
2021/09/22 05:07:15;;;;;;;;;;;;;;;13.07;65.70;101229.75;5036617;28;20020;-63
2021/09/22 05:10:01;;;;;;;;;;;;;;;13.06;65.44;101229.72;5049548;28;19928;-62
2021/09/22 05:12:48;;;;;;;;;;;;;;;13.05;65.74;101241.84;5036628;28;20018;-63
2021/09/22 05:15:32;;;;;;;;;;;;;;;13.04;65.49;101237.47;5049732;28;19975;-63
2021/09/22 05:18:16;;;;;;;;;;;;;;;13.03;65.61;101240.91;5036447;28;19948;-63
2021/09/22 05:21:05;;;;;;;;;;;;;;;13.03;65.82;101240.06;5035786;28;20276;-63
2021/09/22 05:23:52;;;;;;;;;;;;;;;13.02;65.48;101241.75;5035766;28;20296;-63
2021/09/22 05:26:39;;;;;;;;;;;;;;;13.03;65.85;101243.53;5035730;28;19975;-62
2021/09/22 05:29:29;;;;;;;;;;;;;;;13.01;65.73;101237.41;5035295;28;19928;-63
2021/09/22 05:32:21;;;;;;;;;;;;;;;13.00;65.65;101235.63;5035893;28;19928;-63
2021/09/22 05:35:08;;;;;;;;;;;;;;;13.01;65.63;101241.72;5034700;28;20019;-63
2021/09/22 05:37:53;;;;;;;;;;;;;;;12.99;65.56;101244.31;5036131;28;20296;-63
2021/09/22 05:40:37;;;;;;;;;;;;;;;12.99;65.52;101243.41;5036124;28;20059;-63
2021/09/22 05:43:27;;;;;;;;;;;;;;;12.99;65.63;101251.22;5035147;28;20304;-63
2021/09/22 05:46:11;;;;;;;;;;;;;;;12.98;65.89;101247.75;5035556;28;19947;-63
2021/09/22 05:48:57;;;;;;;;;;;;;;;12.98;65.42;101249.47;5036190;28;20012;-63
2021/09/22 05:51:47;;;;;;;;;;;;;;;12.98;65.49;101244.25;5048888;28;19927;-63
2021/09/22 05:54:34;;;;;;;;;;;;;;;12.96;65.43;101249.44;5048997;28;19967;-63
2021/09/22 05:57:23;;;;;;;;;;;;;;;12.94;65.64;101251.09;5033379;28;20056;-63
2021/09/22 06:00:08;;;;;;;;;;;;;;;12.95;65.55;101250.28;5035012;28;19928;-63
2021/09/22 06:02:52;;;;;;;;;;;;;;;12.94;65.71;101256.31;5035697;28;19928;-62
2021/09/22 06:05:39;;;;;;;;;;;;;;;12.94;65.71;101257.19;5049205;28;19932;-64
2021/09/22 06:08:25;;;;;;;;;;;;;;;12.95;65.71;101260.69;5034927;28;19975;-63
2021/09/22 06:11:15;;;;;;;;;;;;;;;12.95;65.69;101271.09;5035399;28;19967;-63
2021/09/22 06:14:02;;;;;;;;;;;;;;;12.95;65.57;101264.16;5035416;28;19929;-63
2021/09/22 06:16:47;;;;;;;;;;;;;;;12.94;65.79;101261.50;5035199;28;19944;-63
2021/09/22 06:19:31;;;;;;;;;;;;;;;12.94;65.80;101264.13;5035296;28;20423;-63
2021/09/22 06:22:27;;;;;;;;;;;;;;;12.93;65.35;101260.63;5035681;28;19983;-62
2021/09/22 06:25:13;;;;;;;;;;;;;;;12.94;65.67;101264.97;5034026;28;19971;-63
2021/09/22 06:27:57;;;;;;;;;;;;;;;12.95;65.63;101265.88;5035008;28;19928;-63
2021/09/22 06:30:44;;;;;;;;;;;;;;;12.95;65.54;101268.47;5035498;28;19943;-63
2021/09/22 06:33:27;;;;;;;;;;;;;;;12.95;65.53;101273.69;5034655;28;19929;-62
2021/09/22 06:36:11;;;;;;;;;;;;;;;12.97;65.47;101269.41;5034747;28;19951;-63
2021/09/22 06:39:03;;;;;;;;;;;;;;;12.98;65.82;101270.28;5035346;28;20288;-63
2021/09/22 06:41:53;;;;;;;;;;;;;;;12.98;65.80;101272.88;5033855;28;20295;-62
2021/09/22 06:44:37;;;;;;;;;;;;;;;13.00;65.89;101279.88;5034294;28;19944;-63
2021/09/22 06:47:24;;;;;;;;;;;;;;;13.00;65.80;101282.47;5033718;28;20435;-63
2021/09/22 06:50:11;;;;;;;;;;;;;;;13.02;66.09;101274.72;5033759;28;20327;-63
2021/09/22 06:53:01;;;;;;;;;;;;;;;13.02;66.06;101274.72;5047604;28;20296;-63
2021/09/22 06:55:48;;;;;;;;;;;;;;;13.02;65.96;101275.59;5034597;28;19928;-62
2021/09/22 06:58:40;;;;;;;;;;;;;;;13.05;65.97;101277.41;5033886;28;19944;-62
2021/09/22 07:01:24;;;;;;;;;;;;;;;13.06;66.10;101274.84;5033466;28;20020;-63
2021/09/22 07:04:14;;;;;;;;;;;;;;;13.07;66.07;101274.00;5034577;28;20411;-63
2021/09/22 07:07:04;;;;;;;;;;;;;;;13.08;66.21;101280.97;5034386;28;19944;-63
2021/09/22 07:09:56;;;;;;;;;;;;;;;13.10;66.31;101284.50;5034744;28;19979;-63
2021/09/22 07:12:41;;;;;;;;;;;;;;;13.11;66.36;101280.16;5033891;28;19928;-63
2021/09/22 07:15:24;;;;;;;;;;;;;;;13.12;66.33;101287.13;5033533;28;20007;-63
2021/09/22 07:18:09;;;;;;;;;;;;;;;13.14;66.35;101285.44;5034114;28;19929;-63
2021/09/22 07:20:56;;;;;;;;;;;;;;;13.15;66.39;101282.00;5033662;28;19983;-62
2021/09/22 07:23:42;;;;;;;;;;;;;;;13.18;66.03;101291.59;5034055;28;19974;-62
2021/09/22 07:26:29;;;;;;;;;;;;;;;13.17;66.25;101292.44;5034016;28;20004;-63
2021/09/22 07:29:13;;;;;;;;;;;;;;;13.19;66.26;101288.16;5034069;28;19928;-63
2021/09/22 07:32:03;;;;;;;;;;;;;;;13.20;66.35;101293.41;5032960;28;19979;-63
2021/09/22 07:34:49;;;;;;;;;;;;;;;13.21;66.51;101297.78;5047404;28;20026;-63
2021/09/22 07:37:33;;;;;;;;;;;;;;;13.23;66.32;101308.22;5033550;28;19928;-62
2021/09/22 07:40:20;;;;;;;;;;;;;;;13.25;66.52;101302.19;5033838;28;19956;-62
2021/09/22 07:43:04;;;;;;;;;;;;;;;13.25;66.67;101307.41;5034092;28;19928;-63
2021/09/22 07:45:48;;;;;;;;;;;;;;;13.28;66.62;101292.72;5032836;28;19967;-63
2021/09/22 07:48:35;;;;;;;;;;;;;;;13.29;66.61;101290.16;5033362;28;19928;-63
2021/09/22 07:51:22;;;;;;;;;;;;;;;13.32;66.72;101291.94;5032685;28;19928;-62
2021/09/22 07:54:06;;;;;;;;;;;;;;;13.32;66.75;101295.41;5046928;28;19932;-62
2021/09/22 07:56:49;;;;;;;;;;;;;;;13.33;66.73;101299.78;5033679;28;19975;-64
2021/09/22 07:59:39;;;;;;;;;;;;;;;13.35;66.80;101294.63;5033076;28;19928;-62
2021/09/22 08:02:23;;;;;;;;;;;;;;;13.36;66.64;101293.78;5033569;28;19944;-63
2021/09/22 08:05:10;;;;;;;;;;;;;;;13.38;66.83;101286.91;5034268;28;19983;-63
2021/09/22 08:07:54;;;;;;;;;;;;;;;13.37;66.66;101293.81;5033858;28;19991;-62
2021/09/22 08:10:41;;;;;;;;;;;;;;;13.39;66.71;101296.47;5032881;28;19943;-63
2021/09/22 08:13:25;;;;;;;;;;;;;;;13.40;66.76;101298.25;5033743;28;20019;-63
2021/09/22 08:16:14;;;;;;;;;;;;;;;13.40;66.71;101293.94;5033091;28;20003;-63
2021/09/22 08:19:04;;;;;;;;;;;;;;;13.42;66.86;101296.56;5033487;28;20411;-62
2021/09/22 08:21:50;;;;;;;;;;;;;;;13.42;66.90;101296.56;5036699;28;19928;-63
2021/09/22 08:24:36;;;;;;;;;;;;;;;13.44;66.81;101301.81;5037296;28;19928;-62
2021/09/22 08:27:27;;;;;;;;;;;;;;;13.44;67.15;101294.88;5036496;28;19944;-63
2021/09/22 08:30:12;;;;;;;;;;;;;;;13.46;67.18;101303.63;5036504;28;19971;-63
2021/09/22 08:32:58;;;;;;;;;;;;;;;13.48;66.91;101304.53;5036724;28;20387;-63
2021/09/22 08:35:42;;;;;;;;;;;;;;;13.48;67.03;101298.44;5037344;28;19927;-63
2021/09/22 08:38:28;;;;;;;;;;;;;;;13.50;66.96;101302.84;5037005;28;19932;-63
2021/09/22 08:41:18;;;;;;;;;;;;;;;13.50;67.05;101296.75;5037015;28;20395;-63
2021/09/22 08:44:05;;;;;;;;;;;;;;;13.50;66.91;101305.47;5037071;28;19944;-63
2021/09/22 08:46:49;;;;;;;;;;;;;;;13.51;66.88;101299.41;5036402;28;19979;-63
2021/09/22 08:49:33;;;;;;;;;;;;;;;13.52;67.05;101303.78;5036434;28;19927;-62
2021/09/22 08:52:20;;;;;;;;;;;;;;;13.54;67.05;101306.41;5050271;28;19968;-63
2021/09/22 08:55:05;;;;;;;;;;;;;;;13.55;66.96;101308.16;5036720;28;20051;-63
2021/09/22 08:57:49;;;;;;;;;;;;;;;13.57;67.00;101308.19;5036858;28;20392;-62
2021/09/22 09:00:33;;;;;;;;;;;;;;;13.59;67.05;101317.81;5036425;28;19928;-63
2021/09/22 09:03:31;;;;;;;;;;;;;;;13.61;67.08;101310.94;5049405;28;19928;-62
2021/09/22 09:06:24;;;;;;;;;;;;;;;13.62;66.97;101307.47;5035564;28;20403;-63
2021/09/22 09:09:10;;;;;;;;;;;;;;;13.64;67.18;101307.50;5036048;28;19951;-63
2021/09/22 09:11:54;;;;;;;;;;;;;;;13.66;66.94;101309.28;5050191;28;19975;-63
2021/09/22 09:14:41;;;;;;;;;;;;;;;13.69;67.00;101305.91;5036843;28;20398;-63
2021/09/22 09:17:42;;;;;;;;;;;;;;;13.69;67.05;101305.91;5036556;28;19928;-63
2021/09/22 09:20:28;;;;;;;;;;;;;;;13.70;66.96;101303.31;5035390;28;19948;-63
2021/09/22 09:23:14;;;;;;;;;;;;;;;13.73;67.04;101302.50;5035254;28;20012;-63
2021/09/22 09:26:04;;;;;;;;;;;;;;;13.75;67.05;101300.81;5036377;28;19929;-63
2021/09/22 09:28:52;;;;;;;;;;;;;;;13.77;67.07;101298.25;5049342;28;19971;-62
2021/09/22 09:31:41;;;;;;;;;;;;;;;13.78;67.13;101302.63;5035024;28;20434;-63
2021/09/22 09:34:25;;;;;;;;;;;;;;;13.80;67.03;101293.09;5035708;28;19998;-63
2021/09/22 09:37:09;;;;;;;;;;;;;;;13.81;67.21;101295.75;5049096;28;19944;-63
2021/09/22 09:39:59;;;;;;;;;;;;;;;13.83;67.23;101296.66;5048724;28;19928;-63
2021/09/22 09:42:43;;;;;;;;;;;;;;;13.85;66.99;101292.38;5036130;28;19947;-63
2021/09/22 09:45:35;;;;;;;;;;;;;;;13.86;67.12;101296.72;5035459;28;19967;-63
2021/09/22 09:48:22;;;;;;;;;;;;;;;13.89;67.20;101290.72;5035449;28;19931;-64
2021/09/22 09:51:07;;;;;;;;;;;;;;;13.91;67.06;101298.56;5034796;28;20288;-62
2021/09/22 09:53:54;;;;;;;;;;;;;;;13.92;67.17;101296.00;5034582;28;20403;-64
2021/09/22 09:56:43;;;;;;;;;;;;;;;13.96;67.11;101296.94;5035373;28;20011;-63
2021/09/22 09:59:30;;;;;;;;;;;;;;;13.97;67.35;101289.13;5034789;28;19928;-63
2021/09/22 10:02:24;;;;;;;;;;;;;;;13.98;67.00;101287.44;5048696;28;19975;-63
2021/09/22 10:05:10;;;;;;;;;;;;;;;13.99;67.12;101282.25;5035726;28;19928;-64
2021/09/22 10:07:55;;;;;;;;;;;;;;;14.00;67.18;101281.41;5035003;28;20023;-64
2021/09/22 10:10:40;;;;;;;;;;;;;;;14.02;67.11;101281.41;5035140;28;19928;-65
2021/09/22 10:13:27;;;;;;;;;;;;;;;14.03;67.14;101280.56;5035126;28;19928;-63
2021/09/22 10:16:15;;;;;;;;;;;;;;;14.06;67.11;101278.03;5035380;28;20018;-63
2021/09/22 10:19:02;;;;;;;;;;;;;;;14.09;67.17;101269.44;5034208;28;19928;-64
2021/09/22 10:21:52;;;;;;;;;;;;;;;14.10;67.12;101253.81;5034938;28;20323;-64
2021/09/22 10:24:36;;;;;;;;;;;;;;;14.13;67.17;101258.19;5034701;28;20091;-63
2021/09/22 10:27:20;;;;;;;;;;;;;;;14.14;67.23;101257.34;5035227;28;19992;-63
2021/09/22 10:30:11;;;;;;;;;;;;;;;14.14;67.02;101255.63;5034758;28;19971;-62
2021/09/22 10:32:57;;;;;;;;;;;;;;;14.14;66.98;101249.53;5034101;28;20375;-63
2021/09/22 10:35:44;;;;;;;;;;;;;;;14.15;67.20;101249.56;5034280;28;19928;-63
2021/09/22 10:38:33;;;;;;;;;;;;;;;14.16;67.12;101245.22;5033835;28;19928;-63
2021/09/22 10:41:29;;;;;;;;;;;;;;;14.18;67.06;101242.63;5034139;28;19970;-63
2021/09/22 10:44:30;;;;;;;;;;;;;;;14.19;67.29;101233.97;5047988;28;19928;-63
2021/09/22 10:47:21;;;;;;;;;;;;;;;14.23;67.07;101241.00;5034373;28;19928;-63
2021/09/22 10:50:08;;;;;;;;;;;;;;;14.24;67.18;101237.56;5034662;28;19983;-63
2021/09/22 10:52:57;;;;;;;;;;;;;;;14.26;67.19;101236.72;5033600;28;20339;-64
2021/09/22 10:56:14;;;;;;;;;;;;;;;14.30;67.15;101233.34;5048023;28;20014;-65
2021/09/22 10:58:59;;;;;;;;;;;;;;;14.32;67.02;101222.97;5024906;28;20380;-64
2021/09/22 11:01:43;;;;;;;;;;;;;;;14.34;67.22;101225.59;5034822;28;19928;-64
2021/09/22 11:04:47;;;;;;;;;;;;;;;14.34;67.22;101225.59;5034637;28;19928;-63
2021/09/22 11:08:05;;;;;;;;;;;;;;;14.36;67.04;101214.31;5034533;28;19971;-63
2021/09/22 11:10:55;;;;;;;;;;;;;;;14.42;67.12;101218.78;5025759;28;19928;-64
2021/09/22 11:13:39;;;;;;;;;;;;;;;14.46;66.91;101210.16;5047891;28;19994;-64
2021/09/22 11:16:26;;;;;;;;;;;;;;;14.49;66.94;101201.50;5033255;28;19970;-64
2021/09/22 11:19:16;;;;;;;;;;;;;;;14.52;66.95;101210.28;5033363;28;19928;-63
2021/09/22 11:22:03;;;;;;;;;;;;;;;14.54;66.76;101210.31;5034622;28;19928;-64
2021/09/22 11:24:53;;;;;;;;;;;;;;;14.55;66.83;101210.34;5034382;28;19948;-63
2021/09/22 11:27:37;;;;;;;;;;;;;;;14.55;66.86;101205.13;5033571;28;19932;-65
2021/09/22 11:30:21;;;;;;;;;;;;;;;14.57;66.92;101203.41;5034006;28;20028;-63
2021/09/22 11:33:07;;;;;;;;;;;;;;;14.58;66.62;101197.34;5034152;28;19957;-64
2021/09/22 11:35:52;;;;;;;;;;;;;;;14.59;66.79;101193.88;5032914;28;19928;-62
2021/09/22 11:38:37;;;;;;;;;;;;;;;14.62;66.64;101191.31;5034347;28;19928;-63
2021/09/22 11:41:26;;;;;;;;;;;;;;;14.64;66.79;101185.25;5033608;28;19928;-64
2021/09/22 11:44:14;;;;;;;;;;;;;;;14.65;66.51;101177.44;5047302;28;19928;-63
2021/09/22 11:46:59;;;;;;;;;;;;;;;14.64;66.49;101178.28;5033315;28;19928;-63
2021/09/22 11:49:46;;;;;;;;;;;;;;;14.65;66.63;101172.22;5034115;28;20016;-63
2021/09/22 11:52:33;;;;;;;;;;;;;;;14.66;66.53;101170.50;5033849;28;20047;-63
2021/09/22 11:55:23;;;;;;;;;;;;;;;14.66;66.62;101168.78;5032010;28;19932;-63
2021/09/22 11:58:11;;;;;;;;;;;;;;;14.69;66.45;101168.00;5033234;28;19975;-63
2021/09/22 12:00:57;;;;;;;;;;;;;;;14.71;66.54;101161.09;5032941;28;20446;-64
2021/09/22 12:03:47;;;;;;;;;;;;;;;14.72;66.38;101161.09;5033142;28;19928;-63
2021/09/22 12:06:33;;;;;;;;;;;;;;;14.74;66.41;101148.06;5033141;28;19932;-63
2021/09/22 12:09:20;;;;;;;;;;;;;;;14.75;66.53;101147.22;5033242;28;19929;-63
2021/09/22 12:12:15;;;;;;;;;;;;;;;14.77;66.40;101145.50;5032974;28;21563;-64
2021/09/22 12:14:59;;;;;;;;;;;;;;;14.79;66.28;101145.56;5033067;28;20003;-63
2021/09/22 12:17:43;;;;;;;;;;;;;;;14.82;66.30;101136.03;5033594;28;19928;-64
2021/09/22 12:20:32;;;;;;;;;;;;;;;14.83;66.27;101122.13;5032581;28;19928;-63
2021/09/22 12:23:23;;;;;;;;;;;;;;;14.85;66.15;101136.09;5033479;28;20406;-63
2021/09/22 12:26:08;;;;;;;;;;;;;;;14.84;66.01;101126.50;5032459;28;19975;-63
2021/09/22 12:29:06;;;;;;;;;;;;;;;14.87;65.93;101117.81;5033636;28;19928;-65
2021/09/22 12:31:53;;;;;;;;;;;;;;;14.89;66.04;101116.13;5032246;28;19999;-63
2021/09/22 12:34:45;;;;;;;;;;;;;;;14.90;65.91;101115.28;5032386;28;20426;-64
2021/09/22 12:37:30;;;;;;;;;;;;;;;14.90;66.03;101108.31;5031907;28;19928;-63
2021/09/22 12:40:25;;;;;;;;;;;;;;;14.89;66.01;101109.16;5033437;28;19971;-63
2021/09/22 12:43:18;;;;;;;;;;;;;;;14.90;65.88;101113.53;5032464;28;19968;-64
2021/09/22 12:46:16;;;;;;;;;;;;;;;14.90;66.03;101103.09;5032696;28;20016;-63
2021/09/22 12:49:15;;;;;;;;;;;;;;;14.94;65.76;101098.81;5032615;28;20402;-64
2021/09/22 12:51:58;;;;;;;;;;;;;;;14.95;65.83;101090.09;5032674;28;19928;-64
2021/09/22 12:54:45;;;;;;;;;;;;;;;14.98;65.74;101091.91;5033561;28;19928;-63
2021/09/22 12:57:42;;;;;;;;;;;;;;;15.00;65.92;101082.34;5032455;28;19928;-63
2021/09/22 13:00:32;;;;;;;;;;;;;;;15.02;65.50;101067.59;5032603;28;20003;-64
2021/09/22 13:03:26;;;;;;;;;;;;;;;15.02;65.62;101062.38;5032190;28;19928;-64
2021/09/22 13:06:13;;;;;;;;;;;;;;;15.02;65.69;101071.06;5034183;28;19960;-64
2021/09/22 13:09:04;;;;;;;;;;;;;;;15.03;65.49;101058.88;5035965;28;19983;-64
2021/09/22 13:11:48;;;;;;;;;;;;;;;15.02;65.65;101055.41;5035934;28;19971;-63
2021/09/22 13:14:36;;;;;;;;;;;;;;;15.04;65.55;101052.81;5049966;28;19932;-63
2021/09/22 13:17:19;;;;;;;;;;;;;;;15.05;65.41;101054.56;5036053;28;20398;-64
2021/09/22 13:20:06;;;;;;;;;;;;;;;15.05;65.30;101042.41;5036725;28;20427;-63
2021/09/22 13:22:50;;;;;;;;;;;;;;;15.07;65.29;101034.59;5035187;28;20495;-63
2021/09/22 13:25:33;;;;;;;;;;;;;;;15.07;65.35;101032.88;5035451;28;20012;-63
2021/09/22 13:28:23;;;;;;;;;;;;;;;15.08;65.16;101044.16;5036382;28;19929;-63
2021/09/22 13:31:10;;;;;;;;;;;;;;;15.09;65.43;101032.88;5034797;28;20017;-63
2021/09/22 13:33:54;;;;;;;;;;;;;;;15.09;65.20;101035.47;5036284;28;20436;-63
2021/09/22 13:36:41;;;;;;;;;;;;;;;15.07;65.28;101027.63;5036246;28;20446;-64
2021/09/22 13:39:24;;;;;;;;;;;;;;;15.09;65.21;101029.41;5036188;28;20339;-63
2021/09/22 13:42:09;;;;;;;;;;;;;;;15.07;65.28;101025.03;5036183;28;19928;-63
2021/09/22 13:44:58;;;;;;;;;;;;;;;15.09;65.25;101006.75;5035678;28;19928;-63
2021/09/22 13:47:42;;;;;;;;;;;;;;;15.10;65.05;101005.91;5035100;28;19928;-63
2021/09/22 13:50:43;;;;;;;;;;;;;;;15.11;65.16;100994.63;5035521;28;19928;-63
2021/09/22 13:53:27;;;;;;;;;;;;;;;15.11;65.04;100993.72;5035380;28;19928;-64
2021/09/22 13:56:12;;;;;;;;;;;;;;;15.12;65.11;100993.75;5034465;28;19986;-63
2021/09/22 13:59:01;;;;;;;;;;;;;;;15.14;65.05;100992.03;5035688;28;20399;-64
2021/09/22 14:01:50;;;;;;;;;;;;;;;15.14;65.24;100991.16;5035617;28;20009;-63
2021/09/22 14:04:35;;;;;;;;;;;;;;;15.15;64.97;100985.06;5034673;28;20075;-63
2021/09/22 14:07:20;;;;;;;;;;;;;;;15.26;64.70;100977.38;5035580;28;19928;-70
2021/09/22 14:10:04;;;;;;;;;;;;;;;15.39;64.65;100976.66;5048728;28;20384;-70
2021/09/22 14:12:58;;;;;;;;;;;;;;;15.52;64.60;100975.06;5034801;28;19966;-70
2021/09/22 14:15:44;;;;;;;;;;;;;;;15.63;64.26;100981.25;5035704;28;19928;-70
2021/09/22 14:18:31;;;;;;;;;;;;;;;15.71;63.99;100983.94;5034389;28;19975;-70